EZY67TR LXGB-EGGD
Flight info
| Callsign | EZY67TR |
|---|---|
| Flight time | 2h 15m |
| Altitude | 36000 |
| Route | PIMOS M985 MGA DCT BLN DCT MORAL DCT BEXID DCT VTB DCT SIE DCT XERMA DCT ARLUN DCT BUGIX DCT UNGAS DCT DELOG DCT NOVAN DCT RUSIB DCT NOZHU DCT SHIRI DCT TOJAQ |
| Aircraft | A319/M-SDE2E3FGIJ1RWXYZ/LB1 |
Departure
| Time | 2026-05-04 21:42 |
|---|---|
| Airport | Gibraltar Airport (LXGB) |
Arrival
| Time | 2026-05-04 23:57 |
|---|---|
| Airport | Bristol Airport (EGGD) |
| Time | Latitude | Longitude | Altitude | Speed | Heading |
|---|---|---|---|---|---|
| 2026-05-04 21:22 | 36.15308 | -5.34628 | 17 ft | 0 kts | 359° |
| 2026-05-04 21:34 | 36.15297 | -5.34628 | 17 ft | 0 kts | 359° |
| 2026-05-04 21:35 | 36.15287 | -5.34628 | 17 ft | 3 kts | 359° |
| 2026-05-04 21:35 | 36.15269 | -5.34628 | 17 ft | 3 kts | 359° |
| 2026-05-04 21:35 | 36.15252 | -5.34631 | 17 ft | 2 kts | 63° |
| 2026-05-04 21:35 | 36.15251 | -5.34633 | 19 ft | 0 kts | 76° |
| 2026-05-04 21:36 | 36.15251 | -5.34632 | 19 ft | 1 kts | 76° |
| 2026-05-04 21:36 | 36.15246 | -5.34601 | 19 ft | 6 kts | 106° |
| 2026-05-04 21:36 | 36.15234 | -5.34527 | 18 ft | 12 kts | 94° |
| 2026-05-04 21:36 | 36.15237 | -5.34389 | 15 ft | 20 kts | 88° |
| 2026-05-04 21:37 | 36.15247 | -5.34199 | 17 ft | 20 kts | 86° |
| 2026-05-04 21:37 | 36.15251 | -5.34081 | 17 ft | 8 kts | 88° |
| 2026-05-04 21:37 | 36.15224 | -5.34028 | 17 ft | 8 kts | 159° |
| 2026-05-04 21:37 | 36.15215 | -5.34027 | 17 ft | 0 kts | 184° |
| 2026-05-04 21:40 | 36.15213 | -5.34028 | 17 ft | 1 kts | 184° |
| 2026-05-04 21:40 | 36.15154 | -5.34076 | 17 ft | 19 kts | 251° |
| 2026-05-04 21:40 | 36.15152 | -5.34101 | 17 ft | 0 kts | 264° |
| 2026-05-04 21:41 | 36.15151 | -5.34109 | 17 ft | 4 kts | 264° |
| 2026-05-04 21:41 | 36.15138 | -5.34463 | 17 ft | 84 kts | 268° |
| 2026-05-04 21:42 | 36.15102 | -5.35505 | 68 ft | 149 kts | 266° |
| 2026-05-04 21:42 | 36.15082 | -5.36723 | 854 ft | 140 kts | 269° |
| 2026-05-04 21:42 | 36.15104 | -5.37963 | 1471 ft | 150 kts | 275° |
| 2026-05-04 21:42 | 36.15511 | -5.39104 | 2263 ft | 147 kts | 318° |
| 2026-05-04 21:43 | 36.16486 | -5.39352 | 3127 ft | 151 kts | 12° |
| 2026-05-04 21:43 | 36.17296 | -5.38493 | 3778 ft | 173 kts | 58° |
| 2026-05-04 21:43 | 36.17575 | -5.36903 | 4189 ft | 204 kts | 83° |
| 2026-05-04 21:43 | 36.17540 | -5.35054 | 4703 ft | 221 kts | 89° |
| 2026-05-04 21:44 | 36.17444 | -5.33075 | 5012 ft | 243 kts | 92° |
| 2026-05-04 21:44 | 36.17320 | -5.30880 | 5373 ft | 268 kts | 93° |
| 2026-05-04 21:44 | 36.17184 | -5.28536 | 5953 ft | 282 kts | 94° |
| 2026-05-04 21:44 | 36.17040 | -5.26043 | 6715 ft | 292 kts | 94° |
| 2026-05-04 21:45 | 36.16897 | -5.23541 | 7479 ft | 297 kts | 95° |
| 2026-05-04 21:45 | 36.16755 | -5.20975 | 8336 ft | 301 kts | 95° |
| 2026-05-04 21:45 | 36.16612 | -5.18364 | 9105 ft | 307 kts | 95° |
| 2026-05-04 21:45 | 36.16468 | -5.15699 | 9891 ft | 313 kts | 95° |
| 2026-05-04 21:46 | 36.16321 | -5.12953 | 10349 ft | 331 kts | 95° |
| 2026-05-04 21:46 | 36.16161 | -5.10011 | 10655 ft | 351 kts | 95° |
| 2026-05-04 21:46 | 36.15996 | -5.06955 | 11269 ft | 359 kts | 95° |
| 2026-05-04 21:46 | 36.15828 | -5.03855 | 11974 ft | 364 kts | 95° |
| 2026-05-04 21:47 | 36.15657 | -5.00719 | 12677 ft | 368 kts | 95° |
| 2026-05-04 21:47 | 36.15486 | -4.97532 | 13390 ft | 373 kts | 94° |
| 2026-05-04 21:47 | 36.15594 | -4.94308 | 14039 ft | 378 kts | 80° |
| 2026-05-04 21:47 | 36.16336 | -4.91171 | 14610 ft | 382 kts | 65° |
| 2026-05-04 21:48 | 36.17721 | -4.88369 | 15212 ft | 383 kts | 47° |
| 2026-05-04 21:48 | 36.19705 | -4.86204 | 15796 ft | 380 kts | 28° |
| 2026-05-04 21:48 | 36.22096 | -4.84863 | 16412 ft | 378 kts | 15° |
| 2026-05-04 21:48 | 36.24582 | -4.83751 | 17033 ft | 381 kts | 15° |
| 2026-05-04 21:49 | 36.27098 | -4.82627 | 17635 ft | 385 kts | 15° |
| 2026-05-04 21:49 | 36.29621 | -4.81493 | 18220 ft | 390 kts | 15° |
| 2026-05-04 21:49 | 36.32185 | -4.80333 | 18760 ft | 393 kts | 15° |
| 2026-05-04 21:49 | 36.34759 | -4.79153 | 19304 ft | 397 kts | 16° |
| 2026-05-04 21:50 | 36.37333 | -4.77852 | 19853 ft | 401 kts | 19° |
| 2026-05-04 21:50 | 36.39879 | -4.76409 | 20443 ft | 404 kts | 21° |
| 2026-05-04 21:50 | 36.42358 | -4.74849 | 21068 ft | 406 kts | 23° |
| 2026-05-04 21:50 | 36.44843 | -4.73156 | 21624 ft | 408 kts | 22° |
| 2026-05-04 21:51 | 36.47475 | -4.71902 | 22071 ft | 405 kts | 10° |
| 2026-05-04 21:51 | 36.50220 | -4.71084 | 22607 ft | 405 kts | 6° |
| 2026-05-04 21:51 | 36.52993 | -4.70358 | 23146 ft | 409 kts | 7° |
| 2026-05-04 21:51 | 36.55772 | -4.69521 | 23655 ft | 413 kts | 9° |
| 2026-05-04 21:52 | 36.58544 | -4.68503 | 24084 ft | 418 kts | 12° |
| 2026-05-04 21:52 | 36.60718 | -4.67582 | 24410 ft | 422 kts | 14° |
| 2026-05-04 21:53 | 36.61525 | -4.67220 | 24523 ft | 420 kts | 18° |
| 2026-05-04 21:54 | 36.64276 | -4.65924 | 24885 ft | 425 kts | 15° |
| 2026-05-04 21:54 | 36.67052 | -4.64577 | 25144 ft | 433 kts | 15° |
| 2026-05-04 21:54 | 36.69890 | -4.63202 | 25268 ft | 442 kts | 15° |
| 2026-05-04 21:54 | 36.72787 | -4.61820 | 25390 ft | 451 kts | 15° |
| 2026-05-04 21:55 | 36.75733 | -4.60445 | 25509 ft | 459 kts | 15° |
| 2026-05-04 21:55 | 36.78764 | -4.59053 | 25647 ft | 467 kts | 15° |
| 2026-05-04 21:55 | 36.81830 | -4.57659 | 25756 ft | 473 kts | 14° |
| 2026-05-04 21:55 | 36.84957 | -4.56241 | 25864 ft | 480 kts | 15° |
| 2026-05-04 21:56 | 36.88120 | -4.54800 | 25997 ft | 486 kts | 15° |
| 2026-05-04 21:56 | 36.91308 | -4.53337 | 26143 ft | 491 kts | 15° |
| 2026-05-04 21:56 | 36.94527 | -4.51852 | 26271 ft | 496 kts | 15° |
| 2026-05-04 21:56 | 36.97777 | -4.50349 | 26401 ft | 500 kts | 15° |
| 2026-05-04 21:57 | 37.01056 | -4.48831 | 26521 ft | 504 kts | 15° |
| 2026-05-04 21:57 | 37.04355 | -4.47303 | 26669 ft | 508 kts | 15° |
| 2026-05-04 21:57 | 37.07640 | -4.45780 | 26810 ft | 511 kts | 15° |
| 2026-05-04 21:57 | 37.10980 | -4.44230 | 27027 ft | 513 kts | 15° |
| 2026-05-04 21:58 | 37.14298 | -4.42687 | 27288 ft | 513 kts | 15° |
| 2026-05-04 21:58 | 37.17717 | -4.41100 | 27627 ft | 513 kts | 15° |
| 2026-05-04 21:58 | 37.21017 | -4.39570 | 27959 ft | 512 kts | 14° |
| 2026-05-04 21:58 | 37.24328 | -4.38030 | 28183 ft | 514 kts | 15° |
| 2026-05-04 21:59 | 37.27734 | -4.36421 | 28242 ft | 517 kts | 15° |
| 2026-05-04 21:59 | 37.34401 | -4.33164 | 28388 ft | 513 kts | 16° |
| 2026-05-04 22:00 | 37.41018 | -4.29791 | 28640 ft | 513 kts | 17° |
| 2026-05-04 22:00 | 37.44314 | -4.28059 | 28775 ft | 514 kts | 17° |
| 2026-05-04 22:00 | 37.47601 | -4.26295 | 28937 ft | 514 kts | 17° |
| 2026-05-04 22:00 | 37.50881 | -4.24500 | 29106 ft | 514 kts | 18° |
| 2026-05-04 22:01 | 37.54152 | -4.22672 | 29305 ft | 514 kts | 18° |
| 2026-05-04 22:01 | 37.57414 | -4.20814 | 29519 ft | 514 kts | 18° |
| 2026-05-04 22:01 | 37.60664 | -4.18925 | 29773 ft | 514 kts | 19° |
| 2026-05-04 22:01 | 37.63904 | -4.17008 | 30028 ft | 514 kts | 19° |
| 2026-05-04 22:02 | 37.67134 | -4.15060 | 30308 ft | 514 kts | 19° |
| 2026-05-04 22:02 | 37.70354 | -4.13081 | 30567 ft | 514 kts | 20° |
| 2026-05-04 22:02 | 37.73556 | -4.11079 | 30845 ft | 514 kts | 20° |
| 2026-05-04 22:02 | 37.76748 | -4.09047 | 31134 ft | 514 kts | 20° |
| 2026-05-04 22:03 | 37.79923 | -4.06989 | 31448 ft | 513 kts | 21° |
| 2026-05-04 22:03 | 37.83093 | -4.04899 | 31785 ft | 513 kts | 21° |
| 2026-05-04 22:03 | 37.86242 | -4.02784 | 32141 ft | 511 kts | 22° |
| 2026-05-04 22:03 | 37.89324 | -4.00676 | 32558 ft | 510 kts | 22° |
| 2026-05-04 22:04 | 37.92424 | -3.98518 | 32959 ft | 508 kts | 22° |
| 2026-05-04 22:04 | 37.95507 | -3.96331 | 33381 ft | 505 kts | 23° |
| 2026-05-04 22:04 | 37.98550 | -3.94131 | 33825 ft | 502 kts | 23° |
| 2026-05-04 22:04 | 38.01563 | -3.91915 | 34227 ft | 500 kts | 24° |
| 2026-05-04 22:05 | 38.04600 | -3.89871 | 34623 ft | 487 kts | 14° |
| 2026-05-04 22:05 | 38.07778 | -3.88561 | 35032 ft | 477 kts | 8° |
| 2026-05-04 22:05 | 38.10950 | -3.87384 | 35444 ft | 473 kts | 8° |
| 2026-05-04 22:05 | 38.14097 | -3.86223 | 35815 ft | 471 kts | 7° |
| 2026-05-04 22:06 | 38.17249 | -3.85070 | 35972 ft | 473 kts | 7° |
| 2026-05-04 22:06 | 38.23642 | -3.82738 | 36027 ft | 483 kts | 8° |
| 2026-05-04 22:07 | 38.30151 | -3.80347 | 36021 ft | 489 kts | 8° |
| 2026-05-04 22:07 | 38.36684 | -3.77916 | 36024 ft | 490 kts | 8° |
| 2026-05-04 22:08 | 38.43230 | -3.75481 | 36032 ft | 490 kts | 8° |
| 2026-05-04 22:08 | 38.49779 | -3.73048 | 36032 ft | 490 kts | 8° |
| 2026-05-04 22:09 | 38.56292 | -3.70620 | 36030 ft | 490 kts | 8° |
| 2026-05-04 22:09 | 38.62833 | -3.68180 | 36057 ft | 490 kts | 8° |
| 2026-05-04 22:10 | 38.69380 | -3.65738 | 36045 ft | 490 kts | 8° |
| 2026-05-04 22:10 | 38.74879 | -3.63680 | 36039 ft | 491 kts | 8° |
| 2026-05-04 22:11 | 38.81428 | -3.61220 | 36033 ft | 490 kts | 8° |
| 2026-05-04 22:11 | 38.87932 | -3.58769 | 36061 ft | 491 kts | 8° |
| 2026-05-04 22:12 | 38.94504 | -3.56296 | 36041 ft | 491 kts | 8° |
| 2026-05-04 22:12 | 39.02200 | -3.53985 | 36034 ft | 477 kts | 355° |
| 2026-05-04 22:13 | 39.07698 | -3.53447 | 36064 ft | 476 kts | 355° |
| 2026-05-04 22:13 | 39.14316 | -3.52809 | 36047 ft | 477 kts | 355° |
| 2026-05-04 22:14 | 39.20944 | -3.52154 | 36042 ft | 478 kts | 355° |
| 2026-05-04 22:14 | 39.27578 | -3.51477 | 36036 ft | 478 kts | 355° |
| 2026-05-04 22:15 | 39.34217 | -3.50805 | 36041 ft | 479 kts | 355° |
| 2026-05-04 22:15 | 39.40825 | -3.50146 | 36032 ft | 479 kts | 355° |
| 2026-05-04 22:16 | 39.47490 | -3.49475 | 36031 ft | 479 kts | 355° |
| 2026-05-04 22:16 | 39.54139 | -3.48795 | 36060 ft | 480 kts | 356° |
| 2026-05-04 22:17 | 39.60799 | -3.48130 | 36020 ft | 479 kts | 355° |
| 2026-05-04 22:17 | 39.67419 | -3.47475 | 36008 ft | 480 kts | 355° |
| 2026-05-04 22:18 | 39.74079 | -3.46811 | 36007 ft | 480 kts | 355° |
| 2026-05-04 22:18 | 39.80698 | -3.46658 | 36023 ft | 470 kts | 347° |
| 2026-05-04 22:19 | 39.87216 | -3.47327 | 36015 ft | 470 kts | 347° |
| 2026-05-04 22:19 | 39.93742 | -3.47988 | 36006 ft | 470 kts | 347° |
| 2026-05-04 22:20 | 40.00235 | -3.48633 | 36037 ft | 471 kts | 347° |
| 2026-05-04 22:20 | 40.06772 | -3.49296 | 36009 ft | 472 kts | 347° |
| 2026-05-04 22:21 | 40.13324 | -3.49962 | 36015 ft | 472 kts | 347° |
| 2026-05-04 22:21 | 40.19874 | -3.50633 | 36018 ft | 473 kts | 347° |
| 2026-05-04 22:22 | 40.26439 | -3.51299 | 36031 ft | 473 kts | 347° |
| 2026-05-04 22:22 | 40.33012 | -3.51967 | 36005 ft | 474 kts | 347° |
| 2026-05-04 22:23 | 40.39593 | -3.52640 | 36005 ft | 474 kts | 347° |
| 2026-05-04 22:23 | 40.46182 | -3.53315 | 36035 ft | 475 kts | 348° |
| 2026-05-04 22:24 | 40.52770 | -3.53991 | 36022 ft | 476 kts | 348° |
| 2026-05-04 22:24 | 40.59379 | -3.54676 | 36018 ft | 476 kts | 348° |
| 2026-05-04 22:25 | 40.65940 | -3.55352 | 36038 ft | 476 kts | 348° |
| 2026-05-04 22:25 | 40.72591 | -3.56036 | 36032 ft | 476 kts | 348° |
| 2026-05-04 22:26 | 40.79160 | -3.56714 | 36030 ft | 476 kts | 348° |
| 2026-05-04 22:26 | 40.85775 | -3.57397 | 36050 ft | 476 kts | 348° |
| 2026-05-04 22:27 | 40.92383 | -3.58087 | 36042 ft | 476 kts | 348° |
| 2026-05-04 22:27 | 40.99001 | -3.58778 | 36043 ft | 477 kts | 348° |
| 2026-05-04 22:28 | 41.05620 | -3.59472 | 36045 ft | 477 kts | 348° |
| 2026-05-04 22:28 | 41.12252 | -3.60163 | 36050 ft | 479 kts | 348° |
| 2026-05-04 22:29 | 41.18909 | -3.60737 | 36037 ft | 481 kts | 351° |
| 2026-05-04 22:29 | 41.25633 | -3.60885 | 36036 ft | 484 kts | 353° |
| 2026-05-04 22:30 | 41.32329 | -3.60912 | 36053 ft | 484 kts | 353° |
| 2026-05-04 22:30 | 41.39108 | -3.61032 | 36047 ft | 484 kts | 352° |
| 2026-05-04 22:31 | 41.45798 | -3.61223 | 36036 ft | 484 kts | 352° |
| 2026-05-04 22:31 | 41.52534 | -3.61407 | 36073 ft | 485 kts | 353° |
| 2026-05-04 22:32 | 41.59306 | -3.61443 | 36061 ft | 487 kts | 354° |
| 2026-05-04 22:32 | 41.66086 | -3.61387 | 36083 ft | 488 kts | 354° |
| 2026-05-04 22:32 | 41.69471 | -3.61363 | 36337 ft | 487 kts | 354° |
| 2026-05-04 22:33 | 41.72860 | -3.61346 | 36609 ft | 486 kts | 354° |
| 2026-05-04 22:33 | 41.76242 | -3.61339 | 36839 ft | 486 kts | 354° |
| 2026-05-04 22:33 | 41.79618 | -3.61344 | 37063 ft | 485 kts | 354° |
| 2026-05-04 22:33 | 41.82993 | -3.61355 | 37281 ft | 485 kts | 354° |
| 2026-05-04 22:34 | 41.86366 | -3.61367 | 37506 ft | 484 kts | 355° |
| 2026-05-04 22:34 | 41.89739 | -3.61371 | 37720 ft | 484 kts | 355° |
| 2026-05-04 22:34 | 41.93104 | -3.61367 | 37955 ft | 484 kts | 355° |
| 2026-05-04 22:35 | 41.99847 | -3.61360 | 38042 ft | 484 kts | 355° |
| 2026-05-04 22:35 | 42.06567 | -3.61484 | 38044 ft | 482 kts | 353° |
| 2026-05-04 22:36 | 42.13269 | -3.61959 | 38043 ft | 481 kts | 352° |
| 2026-05-04 22:36 | 42.19911 | -3.62507 | 38034 ft | 482 kts | 352° |
| 2026-05-04 22:37 | 42.26649 | -3.62983 | 38031 ft | 482 kts | 353° |
| 2026-05-04 22:37 | 42.33312 | -3.63398 | 38028 ft | 482 kts | 353° |
| 2026-05-04 22:38 | 42.39970 | -3.64344 | 38052 ft | 479 kts | 348° |
| 2026-05-04 22:38 | 42.46577 | -3.65650 | 38043 ft | 480 kts | 347° |
| 2026-05-04 22:39 | 42.53181 | -3.66976 | 38048 ft | 480 kts | 347° |
| 2026-05-04 22:39 | 42.59792 | -3.68301 | 38064 ft | 480 kts | 348° |
| 2026-05-04 22:40 | 42.66413 | -3.69628 | 38054 ft | 481 kts | 348° |
| 2026-05-04 22:40 | 42.73042 | -3.70892 | 38071 ft | 482 kts | 349° |
| 2026-05-04 22:41 | 42.79707 | -3.71993 | 38072 ft | 482 kts | 349° |
| 2026-05-04 22:41 | 42.86329 | -3.73064 | 38071 ft | 482 kts | 349° |
| 2026-05-04 22:42 | 42.92989 | -3.74188 | 38069 ft | 482 kts | 349° |
| 2026-05-04 22:42 | 42.99649 | -3.75342 | 38081 ft | 482 kts | 349° |
| 2026-05-04 22:43 | 43.06312 | -3.76509 | 38079 ft | 483 kts | 349° |
| 2026-05-04 22:43 | 43.12981 | -3.77660 | 38073 ft | 483 kts | 349° |
| 2026-05-04 22:44 | 43.19644 | -3.78801 | 38098 ft | 483 kts | 349° |
| 2026-05-04 22:44 | 43.26315 | -3.79951 | 38092 ft | 483 kts | 349° |
| 2026-05-04 22:45 | 43.32979 | -3.81111 | 38092 ft | 483 kts | 349° |
| 2026-05-04 22:45 | 43.42944 | -3.82848 | 38108 ft | 482 kts | 349° |
| 2026-05-04 22:46 | 43.49605 | -3.84008 | 38103 ft | 482 kts | 349° |
| 2026-05-04 22:46 | 43.56255 | -3.85166 | 38096 ft | 481 kts | 349° |
| 2026-05-04 22:47 | 43.62900 | -3.86334 | 38074 ft | 481 kts | 350° |
| 2026-05-04 22:47 | 43.69550 | -3.87502 | 38064 ft | 481 kts | 350° |
| 2026-05-04 22:48 | 43.76190 | -3.88665 | 38060 ft | 481 kts | 350° |
| 2026-05-04 22:48 | 43.82834 | -3.89838 | 38061 ft | 481 kts | 350° |
| 2026-05-04 22:49 | 43.89426 | -3.91013 | 38058 ft | 481 kts | 350° |
| 2026-05-04 22:49 | 43.96068 | -3.92197 | 38060 ft | 481 kts | 350° |
| 2026-05-04 22:50 | 44.02714 | -3.93366 | 38057 ft | 481 kts | 350° |
| 2026-05-04 22:50 | 44.09369 | -3.94548 | 38054 ft | 481 kts | 350° |
| 2026-05-04 22:51 | 44.16013 | -3.95734 | 38064 ft | 481 kts | 351° |
| 2026-05-04 22:51 | 44.22661 | -3.96919 | 38061 ft | 481 kts | 351° |
| 2026-05-04 22:52 | 44.29301 | -3.98113 | 38051 ft | 481 kts | 351° |
| 2026-05-04 22:52 | 44.35987 | -3.98334 | 38055 ft | 484 kts | 4° |
| 2026-05-04 22:53 | 44.42695 | -3.97372 | 38043 ft | 484 kts | 4° |
| 2026-05-04 22:53 | 44.49361 | -3.96446 | 38053 ft | 485 kts | 4° |
| 2026-05-04 22:54 | 44.56072 | -3.95512 | 38055 ft | 485 kts | 4° |
| 2026-05-04 22:54 | 44.62788 | -3.94565 | 38053 ft | 485 kts | 4° |
| 2026-05-04 22:55 | 44.69499 | -3.93609 | 38045 ft | 485 kts | 4° |
| 2026-05-04 22:55 | 44.76207 | -3.92654 | 38052 ft | 485 kts | 4° |
| 2026-05-04 22:56 | 44.82919 | -3.91706 | 38048 ft | 485 kts | 4° |
| 2026-05-04 22:56 | 44.89639 | -3.90740 | 38084 ft | 484 kts | 6° |
| 2026-05-04 22:57 | 44.92980 | -3.90153 | 38300 ft | 483 kts | 5° |
| 2026-05-04 22:57 | 44.96270 | -3.89595 | 38274 ft | 481 kts | 5° |
| 2026-05-04 22:57 | 44.99582 | -3.88887 | 37985 ft | 480 kts | 9° |
| 2026-05-04 22:57 | 45.02887 | -3.88145 | 38034 ft | 482 kts | 6° |
| 2026-05-04 22:58 | 45.09564 | -3.87250 | 38027 ft | 482 kts | 2° |
| 2026-05-04 22:58 | 45.16263 | -3.86583 | 38025 ft | 482 kts | 3° |
| 2026-05-04 22:59 | 45.22945 | -3.85736 | 38021 ft | 483 kts | 5° |
| 2026-05-04 22:59 | 45.28505 | -3.84912 | 38021 ft | 484 kts | 5° |
| 2026-05-04 23:00 | 45.36310 | -3.83743 | 38038 ft | 485 kts | 5° |
| 2026-05-04 23:00 | 45.41934 | -3.82938 | 38042 ft | 485 kts | 5° |
| 2026-05-04 23:01 | 45.48651 | -3.81996 | 38044 ft | 484 kts | 5° |
| 2026-05-04 23:01 | 45.55357 | -3.81050 | 38044 ft | 484 kts | 5° |
| 2026-05-04 23:02 | 45.62024 | -3.80092 | 38044 ft | 484 kts | 5° |
| 2026-05-04 23:02 | 45.68733 | -3.79126 | 38042 ft | 484 kts | 5° |
| 2026-05-04 23:03 | 45.75451 | -3.78168 | 38042 ft | 484 kts | 5° |
| 2026-05-04 23:03 | 45.82163 | -3.77207 | 38039 ft | 484 kts | 5° |
| 2026-05-04 23:04 | 45.88864 | -3.76242 | 38038 ft | 484 kts | 5° |
| 2026-05-04 23:04 | 45.95564 | -3.75261 | 38039 ft | 484 kts | 5° |
| 2026-05-04 23:05 | 46.02271 | -3.74292 | 38041 ft | 484 kts | 5° |
| 2026-05-04 23:05 | 46.08978 | -3.73322 | 38039 ft | 484 kts | 5° |
| 2026-05-04 23:06 | 46.15640 | -3.72337 | 38037 ft | 484 kts | 5° |
| 2026-05-04 23:06 | 46.22354 | -3.71350 | 38036 ft | 484 kts | 5° |
| 2026-05-04 23:07 | 46.29051 | -3.70373 | 38028 ft | 483 kts | 5° |
| 2026-05-04 23:07 | 46.35750 | -3.70046 | 38032 ft | 482 kts | 358° |
| 2026-05-04 23:08 | 46.42448 | -3.70321 | 38031 ft | 481 kts | 358° |
| 2026-05-04 23:08 | 46.49152 | -3.70576 | 38031 ft | 481 kts | 358° |
| 2026-05-04 23:09 | 46.55846 | -3.70842 | 38031 ft | 481 kts | 358° |
| 2026-05-04 23:09 | 46.62539 | -3.71112 | 38030 ft | 481 kts | 358° |
| 2026-05-04 23:10 | 46.69228 | -3.71373 | 38028 ft | 481 kts | 358° |
| 2026-05-04 23:10 | 46.75919 | -3.71640 | 38029 ft | 480 kts | 358° |
| 2026-05-04 23:11 | 46.82603 | -3.71911 | 38024 ft | 480 kts | 358° |
| 2026-05-04 23:11 | 46.89246 | -3.72184 | 38021 ft | 480 kts | 358° |
| 2026-05-04 23:12 | 46.95923 | -3.72451 | 38020 ft | 480 kts | 358° |
| 2026-05-04 23:12 | 47.02609 | -3.72717 | 38025 ft | 480 kts | 359° |
| 2026-05-04 23:13 | 47.09298 | -3.72990 | 38021 ft | 480 kts | 358° |
| 2026-05-04 23:13 | 47.15980 | -3.73262 | 38019 ft | 480 kts | 359° |
| 2026-05-04 23:14 | 47.22612 | -3.73518 | 38019 ft | 480 kts | 359° |
| 2026-05-04 23:14 | 47.29285 | -3.73790 | 38016 ft | 480 kts | 359° |
| 2026-05-04 23:15 | 47.35961 | -3.74066 | 38020 ft | 480 kts | 359° |
| 2026-05-04 23:15 | 47.42630 | -3.74340 | 38006 ft | 479 kts | 359° |
| 2026-05-04 23:16 | 47.49307 | -3.74614 | 38008 ft | 480 kts | 359° |
| 2026-05-04 23:16 | 47.55986 | -3.74891 | 38009 ft | 480 kts | 359° |
| 2026-05-04 23:17 | 47.62628 | -3.75160 | 38012 ft | 481 kts | 359° |
| 2026-05-04 23:17 | 47.69324 | -3.75437 | 38013 ft | 481 kts | 359° |
| 2026-05-04 23:18 | 47.76028 | -3.75710 | 38021 ft | 482 kts | 359° |
| 2026-05-04 23:18 | 47.82727 | -3.75991 | 38023 ft | 481 kts | 359° |
| 2026-05-04 23:19 | 47.89434 | -3.76278 | 38023 ft | 481 kts | 359° |
| 2026-05-04 23:19 | 47.96093 | -3.76554 | 38024 ft | 481 kts | 359° |
| 2026-05-04 23:20 | 48.02788 | -3.76830 | 38031 ft | 481 kts | 359° |
| 2026-05-04 23:20 | 48.09481 | -3.77109 | 38032 ft | 481 kts | 359° |
| 2026-05-04 23:21 | 48.16167 | -3.77386 | 38032 ft | 480 kts | 359° |
| 2026-05-04 23:21 | 48.22850 | -3.77662 | 38037 ft | 480 kts | 359° |
| 2026-05-04 23:22 | 48.29539 | -3.77943 | 38037 ft | 480 kts | 359° |
| 2026-05-04 23:22 | 48.36218 | -3.78232 | 38036 ft | 480 kts | 359° |
| 2026-05-04 23:23 | 48.42890 | -3.78517 | 38042 ft | 479 kts | 359° |
| 2026-05-04 23:23 | 48.49565 | -3.78795 | 38043 ft | 479 kts | 359° |
| 2026-05-04 23:24 | 48.56224 | -3.79084 | 38045 ft | 479 kts | 359° |
| 2026-05-04 23:24 | 48.62888 | -3.79374 | 38044 ft | 479 kts | 359° |
| 2026-05-04 23:25 | 48.69543 | -3.79654 | 38045 ft | 478 kts | 359° |
| 2026-05-04 23:25 | 48.76194 | -3.79944 | 38044 ft | 478 kts | 359° |
| 2026-05-04 23:26 | 48.82800 | -3.80232 | 38043 ft | 478 kts | 359° |
| 2026-05-04 23:26 | 48.89443 | -3.80508 | 38046 ft | 478 kts | 359° |
| 2026-05-04 23:27 | 48.96085 | -3.80788 | 38047 ft | 477 kts | 359° |
| 2026-05-04 23:27 | 49.02742 | -3.80813 | 38039 ft | 477 kts | 2° |
| 2026-05-04 23:28 | 49.09367 | -3.80314 | 38044 ft | 476 kts | 4° |
| 2026-05-04 23:28 | 49.15986 | -3.79741 | 38044 ft | 476 kts | 4° |
| 2026-05-04 23:29 | 49.22560 | -3.79301 | 38052 ft | 476 kts | 3° |
| 2026-05-04 23:29 | 49.29180 | -3.78931 | 38052 ft | 475 kts | 3° |
| 2026-05-04 23:30 | 49.35791 | -3.78543 | 38049 ft | 475 kts | 3° |
| 2026-05-04 23:30 | 49.42393 | -3.78135 | 38050 ft | 475 kts | 3° |
| 2026-05-04 23:31 | 49.48987 | -3.77714 | 38045 ft | 474 kts | 3° |
| 2026-05-04 23:31 | 49.55583 | -3.77307 | 38044 ft | 474 kts | 3° |
| 2026-05-04 23:32 | 49.58880 | -3.77113 | 37661 ft | 474 kts | 3° |
| 2026-05-04 23:32 | 49.62158 | -3.76921 | 36714 ft | 470 kts | 3° |
| 2026-05-04 23:32 | 49.65419 | -3.76727 | 35692 ft | 467 kts | 3° |
| 2026-05-04 23:32 | 49.68609 | -3.76533 | 35378 ft | 449 kts | 3° |
| 2026-05-04 23:33 | 49.71706 | -3.76308 | 34897 ft | 442 kts | 5° |
| 2026-05-04 23:33 | 49.74760 | -3.75986 | 34381 ft | 439 kts | 6° |
| 2026-05-04 23:33 | 49.77798 | -3.75600 | 33838 ft | 436 kts | 6° |
| 2026-05-04 23:33 | 49.80812 | -3.75192 | 33311 ft | 432 kts | 6° |
| 2026-05-04 23:34 | 49.83788 | -3.74796 | 32811 ft | 428 kts | 6° |
| 2026-05-04 23:34 | 49.86747 | -3.74419 | 32313 ft | 424 kts | 6° |
| 2026-05-04 23:34 | 49.89641 | -3.74064 | 31827 ft | 421 kts | 6° |
| 2026-05-04 23:34 | 49.92547 | -3.73717 | 31343 ft | 418 kts | 6° |
| 2026-05-04 23:35 | 49.95443 | -3.73379 | 30871 ft | 415 kts | 6° |
| 2026-05-04 23:35 | 49.98307 | -3.73049 | 30410 ft | 412 kts | 6° |
| 2026-05-04 23:35 | 50.01166 | -3.72718 | 29928 ft | 410 kts | 6° |
| 2026-05-04 23:35 | 50.04004 | -3.72386 | 29458 ft | 406 kts | 6° |
| 2026-05-04 23:36 | 50.06807 | -3.72056 | 29021 ft | 402 kts | 6° |
| 2026-05-04 23:36 | 50.09586 | -3.71729 | 28589 ft | 399 kts | 6° |
| 2026-05-04 23:36 | 50.12343 | -3.71403 | 28167 ft | 396 kts | 6° |
| 2026-05-04 23:36 | 50.15078 | -3.71076 | 27741 ft | 393 kts | 6° |
| 2026-05-04 23:37 | 50.17793 | -3.70748 | 27318 ft | 390 kts | 6° |
| 2026-05-04 23:37 | 50.20485 | -3.70419 | 26892 ft | 387 kts | 6° |
| 2026-05-04 23:37 | 50.23157 | -3.70091 | 26458 ft | 384 kts | 6° |
| 2026-05-04 23:37 | 50.25817 | -3.69763 | 26024 ft | 382 kts | 6° |
| 2026-05-04 23:38 | 50.28459 | -3.69439 | 25585 ft | 380 kts | 6° |
| 2026-05-04 23:38 | 50.31086 | -3.69124 | 25125 ft | 378 kts | 6° |
| 2026-05-04 23:38 | 50.33705 | -3.68813 | 24667 ft | 376 kts | 7° |
| 2026-05-04 23:38 | 50.36279 | -3.68503 | 24208 ft | 375 kts | 6° |
| 2026-05-04 23:39 | 50.38878 | -3.68188 | 23737 ft | 373 kts | 6° |
| 2026-05-04 23:39 | 50.41461 | -3.67877 | 23231 ft | 371 kts | 7° |
| 2026-05-04 23:39 | 50.44022 | -3.67493 | 22769 ft | 368 kts | 8° |
| 2026-05-04 23:39 | 50.46549 | -3.67026 | 22322 ft | 364 kts | 9° |
| 2026-05-04 23:40 | 50.49049 | -3.66524 | 21872 ft | 361 kts | 9° |
| 2026-05-04 23:40 | 50.51527 | -3.66017 | 21434 ft | 358 kts | 9° |
| 2026-05-04 23:40 | 50.53990 | -3.65520 | 21003 ft | 355 kts | 9° |
| 2026-05-04 23:40 | 50.56430 | -3.65037 | 20584 ft | 353 kts | 9° |
| 2026-05-04 23:41 | 50.58864 | -3.64567 | 20158 ft | 350 kts | 9° |
| 2026-05-04 23:41 | 50.61276 | -3.64104 | 19734 ft | 348 kts | 9° |
| 2026-05-04 23:41 | 50.63676 | -3.63646 | 19312 ft | 346 kts | 9° |
| 2026-05-04 23:41 | 50.66063 | -3.63190 | 18899 ft | 345 kts | 9° |
| 2026-05-04 23:42 | 50.68442 | -3.62738 | 18487 ft | 343 kts | 9° |
| 2026-05-04 23:42 | 50.70808 | -3.62287 | 18044 ft | 342 kts | 9° |
| 2026-05-04 23:42 | 50.73133 | -3.61844 | 17636 ft | 339 kts | 9° |
| 2026-05-04 23:42 | 50.75469 | -3.61399 | 17229 ft | 337 kts | 9° |
| 2026-05-04 23:43 | 50.77790 | -3.60957 | 16842 ft | 335 kts | 9° |
| 2026-05-04 23:43 | 50.80096 | -3.60517 | 16454 ft | 333 kts | 9° |
| 2026-05-04 23:43 | 50.82389 | -3.60076 | 16065 ft | 331 kts | 8° |
| 2026-05-04 23:43 | 50.84670 | -3.59635 | 15683 ft | 329 kts | 8° |
| 2026-05-04 23:44 | 50.86935 | -3.59196 | 15312 ft | 328 kts | 8° |
| 2026-05-04 23:44 | 50.89197 | -3.58757 | 14936 ft | 326 kts | 8° |
| 2026-05-04 23:44 | 50.91449 | -3.58322 | 14561 ft | 326 kts | 7° |
| 2026-05-04 23:44 | 50.93659 | -3.57627 | 14187 ft | 324 kts | 19° |
| 2026-05-04 23:45 | 50.95684 | -3.56144 | 13963 ft | 317 kts | 31° |
| 2026-05-04 23:45 | 50.97595 | -3.54396 | 13510 ft | 318 kts | 30° |
| 2026-05-04 23:45 | 50.99496 | -3.52676 | 13258 ft | 312 kts | 30° |
| 2026-05-04 23:45 | 51.01383 | -3.50971 | 12858 ft | 311 kts | 30° |
| 2026-05-04 23:46 | 51.03257 | -3.49275 | 12440 ft | 308 kts | 30° |
| 2026-05-04 23:46 | 51.05118 | -3.47591 | 11952 ft | 306 kts | 30° |
| 2026-05-04 23:46 | 51.06955 | -3.45926 | 11549 ft | 301 kts | 30° |
| 2026-05-04 23:46 | 51.08737 | -3.44310 | 11185 ft | 296 kts | 30° |
| 2026-05-04 23:47 | 51.10510 | -3.42696 | 10821 ft | 291 kts | 30° |
| 2026-05-04 23:47 | 51.12250 | -3.41109 | 10454 ft | 286 kts | 30° |
| 2026-05-04 23:47 | 51.13964 | -3.39547 | 10086 ft | 282 kts | 30° |
| 2026-05-04 23:47 | 51.15654 | -3.38000 | 9595 ft | 280 kts | 30° |
| 2026-05-04 23:48 | 51.17302 | -3.36389 | 9150 ft | 276 kts | 38° |
| 2026-05-04 23:48 | 51.18671 | -3.34280 | 8696 ft | 272 kts | 52° |
| 2026-05-04 23:48 | 51.19805 | -3.31887 | 8229 ft | 270 kts | 53° |
| 2026-05-04 23:48 | 51.20514 | -3.30237 | 7754 ft | 274 kts | 63° |
| 2026-05-04 23:49 | 51.21153 | -3.27375 | 7178 ft | 275 kts | 74° |
| 2026-05-04 23:49 | 51.21660 | -3.24444 | 6672 ft | 273 kts | 75° |
| 2026-05-04 23:49 | 51.22146 | -3.21529 | 6165 ft | 271 kts | 75° |
| 2026-05-04 23:49 | 51.22615 | -3.18638 | 5664 ft | 268 kts | 75° |
| 2026-05-04 23:50 | 51.23075 | -3.15779 | 5165 ft | 264 kts | 73° |
| 2026-05-04 23:50 | 51.23925 | -3.13250 | 4665 ft | 259 kts | 46° |
| 2026-05-04 23:50 | 51.25391 | -3.11749 | 4440 ft | 243 kts | 23° |
| 2026-05-04 23:50 | 51.26894 | -3.10807 | 4312 ft | 227 kts | 20° |
| 2026-05-04 23:51 | 51.28331 | -3.09962 | 4185 ft | 213 kts | 20° |
| 2026-05-04 23:51 | 51.29686 | -3.09172 | 4079 ft | 203 kts | 20° |
| 2026-05-04 23:51 | 51.30980 | -3.08422 | 3904 ft | 195 kts | 20° |
| 2026-05-04 23:51 | 51.32251 | -3.07691 | 3612 ft | 193 kts | 20° |
| 2026-05-04 23:52 | 51.33488 | -3.06880 | 3296 ft | 192 kts | 27° |
| 2026-05-04 23:52 | 51.34653 | -3.05870 | 3017 ft | 189 kts | 30° |
| 2026-05-04 23:52 | 51.35790 | -3.04776 | 3001 ft | 191 kts | 40° |
| 2026-05-04 23:52 | 51.36649 | -3.03191 | 3008 ft | 187 kts | 60° |
| 2026-05-04 23:53 | 51.37072 | -3.01253 | 3026 ft | 184 kts | 81° |
| 2026-05-04 23:53 | 51.37161 | -2.99217 | 3011 ft | 182 kts | 85° |
| 2026-05-04 23:53 | 51.37248 | -2.97201 | 3008 ft | 181 kts | 85° |
| 2026-05-04 23:53 | 51.37332 | -2.95191 | 3006 ft | 181 kts | 85° |
| 2026-05-04 23:54 | 51.37415 | -2.93177 | 2994 ft | 181 kts | 85° |
| 2026-05-04 23:54 | 51.37496 | -2.91189 | 2844 ft | 180 kts | 85° |
| 2026-05-04 23:54 | 51.37577 | -2.89193 | 2629 ft | 179 kts | 85° |
| 2026-05-04 23:54 | 51.37656 | -2.87241 | 2401 ft | 169 kts | 85° |
| 2026-05-04 23:55 | 51.37727 | -2.85460 | 2184 ft | 150 kts | 84° |
| 2026-05-04 23:55 | 51.37790 | -2.83886 | 1986 ft | 135 kts | 84° |
| 2026-05-04 23:55 | 51.37907 | -2.81001 | 1633 ft | 128 kts | 84° |
| 2026-05-04 23:56 | 51.37963 | -2.79593 | 1453 ft | 126 kts | 83° |
| 2026-05-04 23:56 | 51.38019 | -2.78192 | 1282 ft | 126 kts | 84° |
| 2026-05-04 23:56 | 51.38075 | -2.76792 | 1099 ft | 125 kts | 84° |
| 2026-05-04 23:56 | 51.38130 | -2.75398 | 939 ft | 125 kts | 85° |
| 2026-05-04 23:57 | 51.38183 | -2.74001 | 723 ft | 127 kts | 84° |
| 2026-05-04 23:57 | 51.38241 | -2.72713 | 617 ft | 104 kts | 85° |
| 2026-05-04 23:57 | 51.38275 | -2.71791 | 617 ft | 59 kts | 86° |
| 2026-05-04 23:57 | 51.38290 | -2.71390 | 613 ft | 23 kts | 86° |
| 2026-05-04 23:58 | 51.38301 | -2.71157 | 611 ft | 21 kts | 85° |
| 2026-05-04 23:58 | 51.38310 | -2.70927 | 618 ft | 21 kts | 86° |
| 2026-05-04 23:58 | 51.38322 | -2.70693 | 611 ft | 21 kts | 85° |
| 2026-05-04 23:58 | 51.38343 | -2.70496 | 619 ft | 12 kts | 39° |
| 2026-05-04 23:59 | 51.38427 | -2.70511 | 618 ft | 13 kts | 346° |
| 2026-05-04 23:59 | 51.38475 | -2.70608 | 612 ft | 12 kts | 272° |
| 2026-05-04 23:59 | 51.38472 | -2.70681 | 612 ft | 6 kts | 267° |
| 2026-05-04 23:59 | 51.38470 | -2.70751 | 612 ft | 7 kts | 267° |
| 2026-05-05 00:00 | 51.38467 | -2.70827 | 624 ft | 7 kts | 267° |
| 2026-05-05 00:00 | 51.38466 | -2.70880 | 612 ft | 7 kts | 267° |
| 2026-05-05 00:00 | 51.38462 | -2.70991 | 613 ft | 8 kts | 271° |
| 2026-05-05 00:00 | 51.38496 | -2.71014 | 614 ft | 5 kts | 354° |
| 2026-05-05 00:01 | 51.38535 | -2.71018 | 613 ft | 0 kts | 357° |